createdAt,value
2018-05-14T00:01:01.042Z,65
2018-05-14T00:02:03.077Z,65
2018-05-14T00:03:05.083Z,65
2018-05-14T00:04:07.092Z,65
2018-05-14T00:05:09.092Z,65
2018-05-14T00:06:11.099Z,65
2018-05-14T00:07:13.398Z,65
2018-05-14T00:08:15.747Z,65
2018-05-14T00:09:17.779Z,65
2018-05-14T00:10:19.775Z,65
2018-05-14T00:11:21.769Z,65
2018-05-14T00:12:23.779Z,65
2018-05-14T00:13:25.782Z,65
2018-05-14T00:14:27.778Z,65
2018-05-14T00:15:29.785Z,65
2018-05-14T00:16:31.942Z,65
2018-05-14T00:17:34.249Z,65
2018-05-14T00:18:36.630Z,65
2018-05-14T00:19:38.642Z,65
2018-05-14T00:20:40.671Z,65
2018-05-14T00:21:42.668Z,65
2018-05-14T00:22:45.130Z,65
2018-05-14T00:23:47.153Z,65
2018-05-14T00:24:49.713Z,65
2018-05-14T00:25:51.711Z,65
2018-05-14T00:26:53.715Z,65
2018-05-14T00:27:55.716Z,65
2018-05-14T00:28:57.714Z,65
2018-05-14T00:30:00.111Z,65
2018-05-14T00:31:02.153Z,65
2018-05-14T00:32:04.180Z,65
2018-05-14T00:33:06.172Z,65
2018-05-14T00:34:08.188Z,65
2018-05-14T00:35:10.465Z,65
2018-05-14T00:36:12.549Z,65
2018-05-14T00:37:14.557Z,65
2018-05-14T00:38:16.563Z,65
2018-05-14T00:39:18.550Z,65
2018-05-14T00:40:20.544Z,65
2018-05-14T00:41:22.551Z,65
2018-05-14T00:42:24.541Z,65
2018-05-14T00:43:26.543Z,65
2018-05-14T00:44:28.636Z,65
2018-05-14T00:45:30.684Z,65
2018-05-14T00:46:32.685Z,65
2018-05-14T00:47:34.679Z,65
2018-05-14T00:48:37.087Z,65
2018-05-14T00:49:39.374Z,65
2018-05-14T00:50:41.368Z,65
2018-05-14T00:51:43.475Z,65
2018-05-14T00:52:45.477Z,65
2018-05-14T00:53:47.479Z,65
2018-05-14T00:54:49.533Z,65
2018-05-14T00:55:51.524Z,65
2018-05-14T00:56:53.821Z,65
2018-05-14T00:57:55.800Z,65
2018-05-14T00:58:57.897Z,65
2018-05-14T00:59:59.928Z,65
2018-05-14T01:01:02.220Z,65
2018-05-14T01:02:04.512Z,65
2018-05-14T01:03:06.510Z,65
2018-05-14T01:04:08.530Z,65
2018-05-14T01:05:10.831Z,65
2018-05-14T01:06:12.891Z,65
2018-05-14T01:07:14.902Z,65
2018-05-14T01:08:16.907Z,65
2018-05-14T01:09:19.198Z,65
2018-05-14T01:10:21.196Z,65
2018-05-14T01:11:23.768Z,65
2018-05-14T01:12:25.783Z,65
2018-05-14T01:13:27.895Z,65
2018-05-14T01:14:29.890Z,65
2018-05-14T01:15:32.217Z,65
2018-05-14T01:16:34.202Z,65
2018-05-14T01:17:36.215Z,65
2018-05-14T01:18:38.206Z,65
2018-05-14T01:19:40.218Z,65
2018-05-14T01:20:42.363Z,65
2018-05-14T01:21:44.367Z,64
2018-05-14T01:22:46.365Z,65
2018-05-14T01:23:48.383Z,65
2018-05-14T01:24:50.370Z,65
2018-05-14T01:25:52.366Z,65
2018-05-14T01:26:54.378Z,65
2018-05-14T01:27:56.935Z,65
2018-05-14T01:28:58.937Z,65
2018-05-14T01:30:01.210Z,66
2018-05-14T01:31:03.227Z,66
2018-05-14T01:32:05.223Z,65
2018-05-14T01:33:07.226Z,65
2018-05-14T01:34:09.229Z,65
2018-05-14T01:35:11.295Z,66
2018-05-14T01:36:13.344Z,66
2018-05-14T01:37:15.337Z,66
2018-05-14T01:38:17.340Z,66
2018-05-14T01:39:19.351Z,66
2018-05-14T01:40:21.729Z,66
2018-05-14T01:41:23.768Z,66
2018-05-14T01:42:25.827Z,66
2018-05-14T01:43:28.494Z,66
2018-05-14T01:44:30.500Z,66
2018-05-14T01:45:32.491Z,66
2018-05-14T01:46:34.493Z,66
2018-05-14T01:47:36.496Z,66
2018-05-14T01:48:38.815Z,66
2018-05-14T01:49:40.829Z,66
2018-05-14T01:50:42.821Z,67
2018-05-14T01:51:45.109Z,66
2018-05-14T01:52:47.112Z,67
2018-05-14T01:53:49.111Z,67
2018-05-14T01:54:51.122Z,67
2018-05-14T01:55:53.186Z,67
2018-05-14T01:56:55.576Z,67
2018-05-14T01:57:57.577Z,67
2018-05-14T01:58:59.589Z,67
2018-05-14T02:00:01.602Z,67
2018-05-14T02:01:03.603Z,68
2018-05-14T02:02:05.599Z,67
2018-05-14T02:03:07.680Z,68
2018-05-14T02:04:10.000Z,68
2018-05-14T02:05:12.003Z,68
2018-05-14T02:06:14.012Z,68
2018-05-14T02:07:16.005Z,68
2018-05-14T02:08:18.025Z,68
2018-05-14T02:09:20.024Z,68
2018-05-14T02:10:22.303Z,68
2018-05-14T02:11:24.317Z,68
2018-05-14T02:12:27.177Z,68
2018-05-14T02:13:29.552Z,68
2018-05-14T02:14:31.548Z,68
2018-05-14T02:15:33.544Z,68
2018-05-14T02:16:35.540Z,68
2018-05-14T02:17:37.538Z,68
2018-05-14T02:18:39.557Z,68
2018-05-14T02:19:41.559Z,68
2018-05-14T02:20:43.550Z,68
2018-05-14T02:21:45.560Z,68
2018-05-14T02:22:47.566Z,68
2018-05-14T02:23:49.566Z,69
2018-05-14T02:24:51.557Z,69
2018-05-14T02:25:53.559Z,69
2018-05-14T02:26:55.552Z,69
2018-05-14T02:27:57.550Z,69
2018-05-14T02:28:59.550Z,69
2018-05-14T02:30:01.943Z,69
2018-05-14T02:31:03.944Z,69
2018-05-14T02:32:05.928Z,69
2018-05-14T02:33:08.319Z,69
2018-05-14T02:34:10.995Z,69
2018-05-14T02:35:13.949Z,69
2018-05-14T02:36:16.235Z,69
2018-05-14T02:37:18.529Z,69
2018-05-14T02:38:21.233Z,69
2018-05-14T02:39:23.226Z,69
2018-05-14T02:40:25.221Z,70
2018-05-14T02:41:27.224Z,70
2018-05-14T02:42:29.219Z,70
2018-05-14T02:43:31.212Z,70
2018-05-14T02:44:33.207Z,70
2018-05-14T02:45:35.590Z,70
2018-05-14T02:46:38.160Z,70
2018-05-14T02:47:40.165Z,70
2018-05-14T02:48:42.168Z,70
2018-05-14T02:49:44.940Z,70
2018-05-14T02:50:47.708Z,70
2018-05-14T02:51:49.976Z,70
2018-05-14T02:52:52.652Z,70
2018-05-14T02:53:54.961Z,71
2018-05-14T02:54:56.958Z,70
2018-05-14T02:55:59.239Z,70
2018-05-14T02:57:01.537Z,70
2018-05-14T02:58:03.541Z,70
2018-05-14T02:59:05.545Z,70
2018-05-14T03:00:07.548Z,70
2018-05-14T03:01:09.817Z,71
2018-05-14T03:02:12.088Z,71
2018-05-14T03:03:14.482Z,70
2018-05-14T03:04:16.480Z,71
2018-05-14T03:05:18.755Z,71
2018-05-14T03:06:20.761Z,71
2018-05-14T03:07:22.753Z,71
2018-05-14T03:08:25.063Z,71
2018-05-14T03:09:27.055Z,71
2018-05-14T03:10:29.065Z,71
2018-05-14T03:11:31.443Z,71
2018-05-14T03:12:33.708Z,72
2018-05-14T03:13:36.391Z,71
2018-05-14T03:14:38.375Z,71
2018-05-14T03:15:40.372Z,71
2018-05-14T03:16:42.375Z,71
2018-05-14T03:17:44.372Z,71
2018-05-14T03:18:46.384Z,71
2018-05-14T03:19:48.936Z,72
2018-05-14T03:20:50.939Z,71
2018-05-14T03:21:52.931Z,72
2018-05-14T03:22:54.929Z,72
2018-05-14T03:23:56.922Z,72
2018-05-14T03:24:58.933Z,71
2018-05-14T03:26:01.209Z,71
2018-05-14T03:27:03.220Z,71
2018-05-14T03:28:05.211Z,72
2018-05-14T03:29:07.224Z,72
2018-05-14T03:30:09.502Z,72
2018-05-14T03:31:12.197Z,72
2018-05-14T03:32:14.749Z,72
2018-05-14T03:33:17.339Z,72
2018-05-14T03:34:19.327Z,72
2018-05-14T03:35:21.337Z,72
2018-05-14T03:36:23.327Z,72
2018-05-14T03:37:25.322Z,72
2018-05-14T03:38:27.322Z,72
2018-05-14T03:39:29.398Z,72
2018-05-14T03:40:31.318Z,72
2018-05-14T03:41:33.313Z,72
2018-05-14T03:42:35.313Z,72
2018-05-14T03:43:37.322Z,72
2018-05-14T03:44:39.328Z,72
2018-05-14T03:45:41.325Z,72
2018-05-14T03:46:43.314Z,72
2018-05-14T03:47:45.595Z,72
2018-05-14T03:48:47.589Z,72
2018-05-14T03:49:50.366Z,71
2018-05-14T03:50:52.371Z,71
2018-05-14T03:51:54.364Z,71
2018-05-14T03:52:56.653Z,71
2018-05-14T03:53:58.645Z,71
2018-05-14T03:55:00.642Z,71
2018-05-14T03:56:02.657Z,71
2018-05-14T03:57:04.653Z,71
2018-05-14T03:58:06.650Z,72
2018-05-14T03:59:08.656Z,72
2018-05-14T04:00:10.641Z,72
2018-05-14T04:01:12.640Z,72
2018-05-14T04:02:15.077Z,72
2018-05-14T04:03:17.026Z,73
2018-05-14T04:04:19.034Z,72
2018-05-14T04:05:21.034Z,73
2018-05-14T04:06:23.031Z,72
2018-05-14T04:07:25.021Z,73
2018-05-14T04:08:27.079Z,72
2018-05-14T04:09:29.021Z,72
2018-05-14T04:10:31.295Z,72
2018-05-14T04:11:33.674Z,72
2018-05-14T04:12:35.962Z,72
2018-05-14T04:13:37.959Z,72
2018-05-14T04:14:39.962Z,72
2018-05-14T04:15:41.961Z,72
2018-05-14T04:16:43.951Z,72
2018-05-14T04:17:45.949Z,72
2018-05-14T04:18:47.951Z,72
2018-05-14T04:19:49.962Z,72
2018-05-14T04:20:51.949Z,71
2018-05-14T04:21:53.948Z,71
2018-05-14T04:22:55.939Z,71
2018-05-14T04:23:58.231Z,71
2018-05-14T04:25:00.234Z,71
2018-05-14T04:26:02.241Z,71
2018-05-14T04:27:04.931Z,71
2018-05-14T04:28:07.531Z,71
2018-05-14T04:29:09.521Z,71
2018-05-14T04:30:11.613Z,71
2018-05-14T04:31:13.522Z,70
2018-05-14T04:32:15.532Z,71
2018-05-14T04:33:17.535Z,70
2018-05-14T04:34:19.830Z,70
2018-05-14T04:35:22.094Z,70
2018-05-14T04:36:24.097Z,70
2018-05-14T04:37:26.093Z,70
2018-05-14T04:38:28.096Z,70
2018-05-14T04:39:30.379Z,70
2018-05-14T04:40:32.373Z,70
2018-05-14T04:41:34.377Z,71
2018-05-14T04:42:36.381Z,71
2018-05-14T04:43:38.363Z,71
2018-05-14T04:44:40.750Z,70
2018-05-14T04:45:43.031Z,70
2018-05-14T04:46:45.037Z,70
2018-05-14T04:47:47.318Z,70
2018-05-14T04:48:49.325Z,70
2018-05-14T04:49:51.313Z,70
2018-05-14T04:50:53.319Z,70
2018-05-14T04:51:55.314Z,70
2018-05-14T04:52:57.697Z,70
2018-05-14T04:53:59.713Z,70
2018-05-14T04:55:01.725Z,70
2018-05-14T04:56:03.727Z,69
2018-05-14T04:57:06.000Z,69
2018-05-14T04:58:07.989Z,69
2018-05-14T04:59:10.300Z,69
2018-05-14T05:00:12.273Z,69
2018-05-14T05:01:14.271Z,69
2018-05-14T05:02:16.669Z,69
2018-05-14T05:03:18.674Z,68
2018-05-14T05:04:20.656Z,68
2018-05-14T05:05:22.661Z,68
2018-05-14T05:06:24.710Z,68
2018-05-14T05:07:26.744Z,68
2018-05-14T05:08:28.742Z,69
2018-05-14T05:09:30.741Z,68
2018-05-14T05:10:33.126Z,68
2018-05-14T05:11:35.560Z,68
2018-05-14T05:12:37.527Z,68
2018-05-14T05:13:40.113Z,68
2018-05-14T05:14:42.107Z,68
2018-05-14T05:15:44.118Z,68
2018-05-14T05:16:46.112Z,67
2018-05-14T05:17:48.120Z,67
2018-05-14T05:18:50.126Z,67
2018-05-14T05:19:52.506Z,67
2018-05-14T05:20:54.502Z,67
2018-05-14T05:21:56.507Z,67
2018-05-14T05:22:58.784Z,67
2018-05-14T05:24:00.791Z,67
2018-05-14T05:25:03.069Z,66
2018-05-14T05:26:05.079Z,67
2018-05-14T05:27:07.082Z,67
2018-05-14T05:28:09.356Z,66
2018-05-14T05:29:11.353Z,67
2018-05-14T05:30:13.360Z,67
2018-05-14T05:31:15.362Z,67
2018-05-14T05:32:17.367Z,67
2018-05-14T05:33:19.383Z,67
2018-05-14T05:34:21.382Z,67
2018-05-14T05:35:23.769Z,67
2018-05-14T05:36:25.769Z,67
2018-05-14T05:37:27.755Z,68
2018-05-14T05:38:29.762Z,67
2018-05-14T05:39:31.771Z,67
2018-05-14T05:40:33.766Z,67
2018-05-14T05:41:35.767Z,67
2018-05-14T05:42:37.764Z,67
2018-05-14T05:43:39.767Z,66
2018-05-14T05:44:41.761Z,66
2018-05-14T05:45:43.759Z,67
2018-05-14T05:46:46.058Z,66
2018-05-14T05:47:48.051Z,66
2018-05-14T05:48:50.040Z,66
2018-05-14T05:49:52.046Z,65
2018-05-14T05:50:54.043Z,65
2018-05-14T05:51:56.039Z,65
2018-05-14T05:52:58.036Z,65
2018-05-14T05:54:00.417Z,65
2018-05-14T05:55:02.420Z,66
2018-05-14T05:56:05.371Z,65
2018-05-14T05:57:07.676Z,65
2018-05-14T05:58:09.699Z,65
2018-05-14T05:59:11.971Z,66
2018-05-14T06:00:13.973Z,66
2018-05-14T06:01:16.407Z,66
2018-05-14T06:02:18.401Z,65
2018-05-14T06:03:20.409Z,65
2018-05-14T06:04:22.784Z,65
2018-05-14T06:05:24.796Z,65
2018-05-14T06:06:26.802Z,65
2018-05-14T06:07:28.809Z,65
2018-05-14T06:08:30.815Z,65
2018-05-14T06:09:32.914Z,65
2018-05-14T06:10:34.812Z,65
2018-05-14T06:11:36.817Z,65
2018-05-14T06:12:38.832Z,65
2018-05-14T06:13:40.848Z,65
2018-05-14T06:14:43.416Z,64
2018-05-14T06:15:45.426Z,64
2018-05-14T06:16:47.801Z,64
2018-05-14T06:17:49.818Z,64
2018-05-14T06:18:52.091Z,64
2018-05-14T06:19:54.114Z,64
2018-05-14T06:20:56.129Z,64
2018-05-14T06:21:58.158Z,64
2018-05-14T06:23:00.567Z,64
2018-05-14T06:24:02.868Z,63
2018-05-14T06:25:05.269Z,64
2018-05-14T06:26:07.316Z,64
2018-05-14T06:27:09.319Z,64
2018-05-14T06:28:11.344Z,64
2018-05-14T06:29:13.394Z,63
2018-05-14T06:30:15.402Z,63
2018-05-14T06:31:17.772Z,64
2018-05-14T06:32:19.781Z,63
2018-05-14T06:33:21.784Z,63
2018-05-14T06:34:23.820Z,63
2018-05-14T06:35:25.856Z,63
2018-05-14T06:36:27.854Z,63
2018-05-14T06:37:30.149Z,63
2018-05-14T06:38:32.160Z,63
2018-05-14T06:39:34.166Z,63
2018-05-14T06:40:36.224Z,63
2018-05-14T06:41:38.238Z,63
2018-05-14T06:42:40.291Z,63
2018-05-14T06:43:42.311Z,63
2018-05-14T06:44:44.612Z,63
2018-05-14T06:45:46.609Z,63
2018-05-14T06:46:48.637Z,62
2018-05-14T06:47:50.652Z,62
2018-05-14T06:48:52.657Z,62
2018-05-14T06:49:54.703Z,62
2018-05-14T06:50:56.820Z,62
2018-05-14T06:51:58.822Z,62
2018-05-14T06:53:00.841Z,62
2018-05-14T06:54:03.144Z,62
2018-05-14T06:55:05.559Z,62
2018-05-14T06:56:07.562Z,61
2018-05-14T06:57:09.701Z,61
2018-05-14T06:58:11.702Z,61
2018-05-14T06:59:13.852Z,61
2018-05-14T07:00:15.728Z,60
2018-05-14T07:01:17.725Z,61
2018-05-14T07:02:19.893Z,60
2018-05-14T07:03:22.550Z,62
2018-05-14T07:04:24.590Z,61
2018-05-14T07:05:26.598Z,61
2018-05-14T07:06:28.604Z,61
2018-05-14T07:07:30.792Z,61
2018-05-14T07:08:32.805Z,61
2018-05-14T07:09:34.810Z,61
2018-05-14T07:10:36.854Z,61
2018-05-14T07:11:38.888Z,61
2018-05-14T07:12:40.924Z,61
2018-05-14T07:13:42.974Z,61
2018-05-14T07:14:45.370Z,61
2018-05-14T07:15:47.394Z,61
2018-05-14T07:16:49.697Z,62
2018-05-14T07:17:51.731Z,61
2018-05-14T07:18:53.745Z,61
2018-05-14T07:19:55.748Z,61
2018-05-14T07:20:57.794Z,60
2018-05-14T07:21:59.871Z,61
2018-05-14T07:23:01.882Z,60
2018-05-14T07:24:03.889Z,60
2018-05-14T07:25:06.199Z,60
2018-05-14T07:26:08.223Z,60
2018-05-14T07:27:10.385Z,61
2018-05-14T07:28:12.891Z,61
2018-05-14T07:29:15.179Z,61
2018-05-14T07:30:17.287Z,60
2018-05-14T07:31:19.306Z,60
2018-05-14T07:32:21.360Z,60
2018-05-14T07:33:23.385Z,59
2018-05-14T07:34:26.076Z,59
2018-05-14T07:35:28.094Z,59
2018-05-14T07:36:30.105Z,59
2018-05-14T07:37:32.499Z,59
2018-05-14T07:38:34.507Z,59
2018-05-14T07:39:36.544Z,58
2018-05-14T07:40:38.571Z,59
2018-05-14T07:41:40.592Z,59
2018-05-14T07:42:43.728Z,59
2018-05-14T07:43:45.735Z,58
2018-05-14T07:44:47.768Z,58
2018-05-14T07:45:49.774Z,59
2018-05-14T07:46:51.797Z,57
2018-05-14T07:47:53.792Z,57
2018-05-14T07:48:55.806Z,57
2018-05-14T07:49:57.809Z,58
2018-05-14T07:51:00.053Z,58
2018-05-14T07:52:01.832Z,57
2018-05-14T07:53:03.826Z,58
2018-05-14T07:54:05.865Z,58
2018-05-14T07:55:07.868Z,58
2018-05-14T07:56:10.527Z,56
2018-05-14T07:57:12.532Z,56
2018-05-14T07:58:14.685Z,56
2018-05-14T07:59:16.684Z,57
2018-05-14T08:00:18.738Z,57
2018-05-14T08:01:20.698Z,58
2018-05-14T08:02:23.099Z,56
2018-05-14T08:03:25.124Z,57
2018-05-14T08:04:27.439Z,58
2018-05-14T08:05:29.451Z,59
2018-05-14T08:06:31.505Z,58
2018-05-14T08:07:33.503Z,58
2018-05-14T08:08:35.536Z,57
2018-05-14T08:09:37.571Z,58
2018-05-14T08:10:39.572Z,58
2018-05-14T08:11:41.588Z,58
2018-05-14T08:12:43.621Z,56
2018-05-14T08:13:45.630Z,57
2018-05-14T08:14:47.677Z,57
2018-05-14T08:15:49.701Z,57
2018-05-14T08:16:51.996Z,56
2018-05-14T08:17:53.997Z,56
2018-05-14T08:18:56.010Z,57
2018-05-14T08:19:58.031Z,56
2018-05-14T08:21:00.068Z,57
2018-05-14T08:22:02.495Z,55
2018-05-14T08:23:04.506Z,58
2018-05-14T08:24:06.516Z,57
2018-05-14T08:25:08.535Z,58
2018-05-14T08:26:10.923Z,56
2018-05-14T08:27:12.942Z,55
2018-05-14T08:28:15.239Z,55
2018-05-14T08:29:17.248Z,56
2018-05-14T08:30:19.281Z,57
2018-05-14T08:31:21.794Z,57
2018-05-14T08:32:24.115Z,56
2018-05-14T08:33:26.134Z,56
2018-05-14T08:34:28.152Z,56
2018-05-14T08:35:30.554Z,55
2018-05-14T08:36:32.552Z,55
2018-05-14T08:37:34.563Z,56
2018-05-14T08:38:36.877Z,54
2018-05-14T08:39:38.886Z,53
2018-05-14T08:40:40.904Z,53
2018-05-14T08:41:42.917Z,51
2018-05-14T08:42:44.925Z,50
2018-05-14T08:43:46.921Z,50
2018-05-14T08:44:48.927Z,49
2018-05-14T08:45:50.944Z,50
2018-05-14T08:46:52.949Z,49
2018-05-14T08:47:54.990Z,50
2018-05-14T08:48:56.978Z,51
2018-05-14T08:49:58.994Z,52
2018-05-14T08:51:00.986Z,53
2018-05-14T08:52:03.007Z,49
2018-05-14T08:53:05.304Z,50
2018-05-14T08:54:07.419Z,49
2018-05-14T08:55:09.671Z,52
2018-05-14T08:56:11.681Z,50
2018-05-14T08:57:13.686Z,48
2018-05-14T08:58:15.699Z,46
2018-05-14T08:59:18.087Z,48
2018-05-14T09:00:20.099Z,48
2018-05-14T09:01:22.103Z,48
2018-05-14T09:02:24.119Z,47
2018-05-14T09:03:26.121Z,47
2018-05-14T09:04:28.132Z,48
2018-05-14T09:05:30.142Z,48
2018-05-14T09:06:32.151Z,50
2018-05-14T09:07:34.159Z,46
2018-05-14T09:08:36.185Z,46
2018-05-14T09:09:38.564Z,49
2018-05-14T09:10:40.574Z,46
2018-05-14T09:11:42.595Z,47
2018-05-14T09:12:44.998Z,45
2018-05-14T09:13:46.998Z,46
2018-05-14T09:14:49.018Z,45
2018-05-14T09:15:51.027Z,45
2018-05-14T09:16:53.054Z,43
2018-05-14T09:17:55.072Z,44
2018-05-14T09:18:57.464Z,44
2018-05-14T09:19:59.473Z,42
2018-05-14T09:21:01.483Z,43
2018-05-14T09:22:03.513Z,42
2018-05-14T09:23:05.530Z,42
2018-05-14T09:24:07.540Z,40
2018-05-14T09:25:09.945Z,39
2018-05-14T09:26:11.968Z,38
2018-05-14T09:27:13.974Z,39
2018-05-14T09:28:16.265Z,39
2018-05-14T09:29:18.283Z,40
2018-05-14T09:30:20.581Z,39
2018-05-14T09:31:22.877Z,40
2018-05-14T09:32:25.269Z,40
2018-05-14T09:33:27.307Z,41
2018-05-14T09:34:29.310Z,41
2018-05-14T09:35:31.331Z,39
2018-05-14T09:36:33.351Z,39
2018-05-14T09:37:35.649Z,38
2018-05-14T09:38:37.650Z,39
2018-05-14T09:39:39.670Z,37
2018-05-14T09:40:41.703Z,36
2018-05-14T09:41:43.716Z,38
2018-05-14T09:42:45.739Z,39
2018-05-14T09:43:47.747Z,39
2018-05-14T09:44:49.764Z,38
2018-05-14T09:45:51.777Z,38
2018-05-14T09:46:53.890Z,38
2018-05-14T09:47:55.920Z,39
2018-05-14T09:48:57.931Z,38
2018-05-14T09:49:59.942Z,39
2018-05-14T09:51:02.262Z,38
2018-05-14T09:52:04.952Z,40
2018-05-14T09:53:06.973Z,38
2018-05-14T09:54:08.993Z,38
2018-05-14T09:55:11.018Z,39
2018-05-14T09:56:13.042Z,34
2018-05-14T09:57:15.387Z,35
2018-05-14T09:58:17.356Z,35
2018-05-14T09:59:19.377Z,35
2018-05-14T10:00:21.415Z,36
2018-05-14T10:01:23.418Z,35
2018-05-14T10:02:25.451Z,34
2018-05-14T10:03:27.555Z,36
2018-05-14T10:04:30.116Z,36
2018-05-14T10:05:32.148Z,35
2018-05-14T10:06:34.174Z,35
2018-05-14T10:07:36.196Z,35
2018-05-14T10:08:38.878Z,35
2018-05-14T10:09:40.897Z,35
2018-05-14T10:10:42.920Z,37
2018-05-14T10:11:45.240Z,37
2018-05-14T10:12:47.262Z,36
2018-05-14T10:13:49.588Z,35
2018-05-14T10:14:51.875Z,34
2018-05-14T10:15:53.896Z,34
2018-05-14T10:16:55.926Z,33
2018-05-14T10:17:57.951Z,33
2018-05-14T10:18:59.962Z,33
2018-05-14T10:20:02.565Z,33
2018-05-14T10:21:04.875Z,33
2018-05-14T10:22:06.891Z,34
2018-05-14T10:23:09.303Z,34
2018-05-14T10:24:11.600Z,33
2018-05-14T10:25:13.617Z,33
2018-05-14T10:26:15.636Z,33
2018-05-14T10:27:17.654Z,34
2018-05-14T10:28:19.684Z,34
2018-05-14T10:29:21.982Z,35
2018-05-14T10:30:23.996Z,33
2018-05-14T10:31:26.019Z,33
2018-05-14T10:32:28.047Z,33
2018-05-14T10:33:30.348Z,33
2018-05-14T10:34:32.382Z,34
2018-05-14T10:35:34.394Z,34
2018-05-14T10:36:36.422Z,32
2018-05-14T10:37:38.716Z,32
2018-05-14T10:38:40.740Z,32
2018-05-14T10:39:42.759Z,32
2018-05-14T10:40:44.812Z,31
2018-05-14T10:41:46.802Z,32
2018-05-14T10:42:49.213Z,33
2018-05-14T10:43:51.232Z,33
2018-05-14T10:44:53.256Z,32
2018-05-14T10:45:55.273Z,32
2018-05-14T10:46:57.284Z,31
2018-05-14T10:47:59.600Z,33
2018-05-14T10:49:01.646Z,33
2018-05-14T10:50:03.949Z,33
2018-05-14T10:51:06.245Z,32
2018-05-14T10:52:08.269Z,34
2018-05-14T10:53:10.297Z,32
2018-05-14T10:54:12.311Z,32
2018-05-14T10:55:14.342Z,32
2018-05-14T10:56:16.366Z,32
2018-05-14T10:57:18.381Z,33
2018-05-14T10:58:20.408Z,32
2018-05-14T10:59:22.427Z,31
2018-05-14T11:00:24.449Z,33
2018-05-14T11:01:26.490Z,33
2018-05-14T11:02:29.166Z,33
2018-05-14T11:03:31.200Z,33
2018-05-14T11:04:33.223Z,33
2018-05-14T11:05:35.248Z,32
2018-05-14T11:06:37.559Z,32
2018-05-14T11:07:39.960Z,31
2018-05-14T11:08:41.990Z,31
2018-05-14T11:09:44.004Z,31
2018-05-14T11:10:47.092Z,31
2018-05-14T11:11:49.421Z,31
2018-05-14T11:12:51.722Z,31
2018-05-14T11:13:53.750Z,31
2018-05-14T11:14:55.770Z,31
2018-05-14T11:15:57.790Z,33
2018-05-14T11:16:59.807Z,33
2018-05-14T11:18:02.226Z,34
2018-05-14T11:19:04.258Z,34
2018-05-14T11:20:06.281Z,34
2018-05-14T11:21:08.683Z,35
2018-05-14T11:22:10.720Z,33
2018-05-14T11:23:12.735Z,33
2018-05-14T11:24:14.762Z,32
2018-05-14T11:25:16.775Z,32
2018-05-14T11:26:19.088Z,32
2018-05-14T11:27:21.115Z,32
2018-05-14T11:28:23.124Z,31
2018-05-14T11:29:25.151Z,33
2018-05-14T11:30:27.173Z,31
2018-05-14T11:31:29.195Z,31
2018-05-14T11:32:31.219Z,31
2018-05-14T11:33:33.237Z,31
2018-05-14T11:34:35.271Z,32
2018-05-14T11:35:37.303Z,33
2018-05-14T11:36:39.310Z,33
2018-05-14T11:37:41.335Z,31
2018-05-14T11:38:43.358Z,32
2018-05-14T11:39:45.373Z,31
2018-05-14T11:40:47.388Z,32
2018-05-14T11:41:49.412Z,30
2018-05-14T11:42:51.442Z,30
2018-05-14T11:43:53.436Z,31
2018-05-14T11:44:55.458Z,32
2018-05-14T11:45:57.480Z,31
2018-05-14T11:46:59.503Z,30
2018-05-14T11:48:01.526Z,30
2018-05-14T11:49:04.222Z,29
2018-05-14T11:50:06.242Z,30
2018-05-14T11:51:09.221Z,30
2018-05-14T11:52:12.239Z,30
2018-05-14T11:53:15.016Z,31
2018-05-14T11:54:17.047Z,31
2018-05-14T11:55:19.369Z,31
2018-05-14T11:56:21.396Z,31
2018-05-14T11:57:23.416Z,32
2018-05-14T11:58:25.713Z,32
2018-05-14T11:59:27.733Z,31
2018-05-14T12:00:29.752Z,29
2018-05-14T12:01:31.776Z,30
2018-05-14T12:02:33.807Z,30
2018-05-14T12:03:35.823Z,32
2018-05-14T12:04:37.838Z,32
2018-05-14T12:05:39.857Z,31
2018-05-14T12:06:41.876Z,32
2018-05-14T12:07:44.185Z,30
2018-05-14T12:08:46.201Z,30
2018-05-14T12:09:48.535Z,31
2018-05-14T12:10:50.538Z,29
2018-05-14T12:11:52.849Z,30
2018-05-14T12:12:55.163Z,29
2018-05-14T12:13:57.165Z,30
2018-05-14T12:14:59.192Z,32
2018-05-14T12:16:01.281Z,31
2018-05-14T12:17:03.595Z,30
2018-05-14T12:18:06.416Z,30
2018-05-14T12:19:09.144Z,31
2018-05-14T12:20:11.554Z,32
2018-05-14T12:21:13.567Z,31
2018-05-14T12:22:15.585Z,31
2018-05-14T12:23:17.609Z,30
2018-05-14T12:24:20.027Z,29
2018-05-14T12:25:22.042Z,30
2018-05-14T12:26:24.065Z,30
2018-05-14T12:27:26.096Z,30
2018-05-14T12:28:28.099Z,30
2018-05-14T12:29:30.494Z,31
2018-05-14T12:30:32.516Z,31
2018-05-14T12:31:34.529Z,31
2018-05-14T12:32:36.550Z,31
2018-05-14T12:33:38.838Z,30
2018-05-14T12:34:40.856Z,30
2018-05-14T12:35:42.889Z,31
2018-05-14T12:36:44.900Z,30
2018-05-14T12:37:46.926Z,31
2018-05-14T12:38:49.264Z,30
2018-05-14T12:39:51.277Z,31
2018-05-14T12:40:53.293Z,31
2018-05-14T12:41:55.307Z,33
2018-05-14T12:42:57.333Z,33
2018-05-14T12:43:59.352Z,32
2018-05-14T12:45:01.837Z,32
2018-05-14T12:46:03.983Z,34
2018-05-14T12:47:06.308Z,32
2018-05-14T12:48:08.705Z,31
2018-05-14T12:49:11.433Z,31
2018-05-14T12:50:13.502Z,31
2018-05-14T12:51:15.600Z,33
2018-05-14T12:52:17.895Z,33
2018-05-14T12:53:19.983Z,33
2018-05-14T12:54:22.088Z,33
2018-05-14T12:55:24.137Z,32
2018-05-14T12:56:26.773Z,32
2018-05-14T12:57:28.804Z,31
2018-05-14T12:58:30.814Z,31
2018-05-14T12:59:32.833Z,31
2018-05-14T13:00:34.848Z,30
2018-05-14T13:01:36.861Z,30
2018-05-14T13:02:39.166Z,30
2018-05-14T13:03:41.500Z,33
2018-05-14T13:04:43.811Z,30
2018-05-14T13:05:46.108Z,28
2018-05-14T13:06:48.125Z,29
2018-05-14T13:07:50.147Z,29
2018-05-14T13:08:52.157Z,29
2018-05-14T13:09:54.467Z,28
2018-05-14T13:10:56.488Z,28
2018-05-14T13:11:58.498Z,28
2018-05-14T13:13:00.916Z,28
2018-05-14T13:14:02.935Z,29
2018-05-14T13:15:05.345Z,29
2018-05-14T13:16:07.648Z,29
2018-05-14T13:17:09.662Z,29
2018-05-14T13:18:11.702Z,30
2018-05-14T13:19:13.751Z,29
2018-05-14T13:20:15.728Z,29
2018-05-14T13:21:18.026Z,27
2018-05-14T13:22:20.045Z,28
2018-05-14T13:23:22.068Z,29
2018-05-14T13:24:24.083Z,27
2018-05-14T13:25:26.100Z,27
2018-05-14T13:26:28.126Z,28
2018-05-14T13:27:30.145Z,27
2018-05-14T13:28:32.171Z,27
2018-05-14T13:29:34.188Z,28
2018-05-14T13:30:36.215Z,28
2018-05-14T13:31:38.236Z,28
2018-05-14T13:32:40.249Z,28
2018-05-14T13:33:42.274Z,29
2018-05-14T13:34:44.591Z,29
2018-05-14T13:35:46.604Z,29
2018-05-14T13:36:48.623Z,28
2018-05-14T13:37:50.961Z,29
2018-05-14T13:38:52.947Z,29
2018-05-14T13:39:54.946Z,28
2018-05-14T13:40:56.968Z,29
2018-05-14T13:41:59.271Z,27
2018-05-14T13:43:01.578Z,29
2018-05-14T13:44:03.605Z,28
2018-05-14T13:45:05.634Z,26
2018-05-14T13:46:07.963Z,28
2018-05-14T13:47:09.986Z,28
2018-05-14T13:48:12.009Z,28
2018-05-14T13:49:14.023Z,29
2018-05-14T13:50:16.044Z,30
2018-05-14T13:51:18.066Z,30
2018-05-14T13:52:20.109Z,30
2018-05-14T13:53:22.133Z,30
2018-05-14T13:54:24.444Z,31
2018-05-14T13:55:26.745Z,32
2018-05-14T13:56:28.773Z,32
2018-05-14T13:57:30.790Z,31
2018-05-14T13:58:33.200Z,31
2018-05-14T13:59:35.529Z,31
2018-05-14T14:00:37.549Z,31
2018-05-14T14:01:39.569Z,32
2018-05-14T14:02:41.596Z,31
2018-05-14T14:03:43.609Z,30
2018-05-14T14:04:46.299Z,31
2018-05-14T14:05:48.321Z,28
2018-05-14T14:06:50.938Z,28
2018-05-14T14:07:52.959Z,27
2018-05-14T14:08:55.293Z,27
2018-05-14T14:09:57.302Z,28
2018-05-14T14:10:59.330Z,28
2018-05-14T14:12:01.348Z,28
2018-05-14T14:13:03.385Z,28
2018-05-14T14:14:05.405Z,28
2018-05-14T14:15:07.426Z,29
2018-05-14T14:16:09.729Z,30
2018-05-14T14:17:11.749Z,29
2018-05-14T14:18:13.773Z,29
2018-05-14T14:19:16.076Z,29
2018-05-14T14:20:18.096Z,29
2018-05-14T14:21:20.708Z,29
2018-05-14T14:22:23.037Z,29
2018-05-14T14:23:25.613Z,28
2018-05-14T14:24:28.005Z,32
2018-05-14T14:25:30.268Z,29
2018-05-14T14:26:32.286Z,30
2018-05-14T14:27:34.313Z,29
2018-05-14T14:28:36.614Z,28
2018-05-14T14:29:38.987Z,28
2018-05-14T14:30:40.957Z,27
2018-05-14T14:31:42.983Z,27
2018-05-14T14:32:45.001Z,25
2018-05-14T14:33:47.030Z,24
2018-05-14T14:34:49.053Z,25
2018-05-14T14:35:51.459Z,23
2018-05-14T14:36:53.402Z,24
2018-05-14T14:37:55.732Z,22
2018-05-14T14:38:58.143Z,22
2018-05-14T14:40:00.164Z,24
2018-05-14T14:41:02.193Z,23
2018-05-14T14:42:04.296Z,23
2018-05-14T14:43:06.253Z,23
2018-05-14T14:44:08.277Z,24
2018-05-14T14:45:10.584Z,23
2018-05-14T14:46:12.613Z,23